sensor_id;sensor_type;location;lat;lon;timestamp;pressure;altitude;pressure_sealevel;temperature;humidity
36514;BME280;74739;46.796;9.824;2024-03-23T00:55:24;84291.90;;;-2.65;48.24
36514;BME280;74739;46.796;9.824;2024-03-23T00:57:52;84287.65;;;-2.84;49.24
36514;BME280;74739;46.796;9.824;2024-03-23T01:00:19;84287.20;;;-1.59;46.95
36514;BME280;74739;46.796;9.824;2024-03-23T01:02:46;84286.00;;;-3.87;52.25
36514;BME280;74739;46.796;9.824;2024-03-23T01:05:14;84283.53;;;-2.77;49.13
36514;BME280;74739;46.796;9.824;2024-03-23T01:07:42;84285.02;;;-4.44;53.84
36514;BME280;74739;46.796;9.824;2024-03-23T01:10:10;84285.89;;;-4.50;54.21
36514;BME280;74739;46.796;9.824;2024-03-23T01:12:43;84279.86;;;-2.03;48.14
36514;BME280;74739;46.796;9.824;2024-03-23T01:15:11;84276.09;;;-4.10;52.17
36514;BME280;74739;46.796;9.824;2024-03-23T01:17:39;84272.93;;;-4.11;53.92
36514;BME280;74739;46.796;9.824;2024-03-23T01:20:08;84272.87;;;-2.14;49.25
36514;BME280;74739;46.796;9.824;2024-03-23T01:22:37;84276.70;;;-4.27;53.26
36514;BME280;74739;46.796;9.824;2024-03-23T01:25:05;84275.88;;;-4.79;55.71
36514;BME280;74739;46.796;9.824;2024-03-23T01:27:34;84271.33;;;-4.98;56.67
36514;BME280;74739;46.796;9.824;2024-03-23T01:30:02;84266.11;;;-4.16;53.82
36514;BME280;74739;46.796;9.824;2024-03-23T01:32:30;84263.60;;;-4.74;55.06
36514;BME280;74739;46.796;9.824;2024-03-23T01:34:59;84259.53;;;-3.06;51.19
36514;BME280;74739;46.796;9.824;2024-03-23T01:37:27;84260.26;;;-3.29;50.59
36514;BME280;74739;46.796;9.824;2024-03-23T01:39:55;84256.97;;;-2.99;49.87
36514;BME280;74739;46.796;9.824;2024-03-23T01:42:23;84254.12;;;-3.53;50.94
36514;BME280;74739;46.796;9.824;2024-03-23T01:44:52;84244.43;;;-3.68;51.15
36514;BME280;74739;46.796;9.824;2024-03-23T01:47:20;84240.31;;;-3.19;49.91
36514;BME280;74739;46.796;9.824;2024-03-23T01:49:49;84236.78;;;-3.88;50.03
36514;BME280;74739;46.796;9.824;2024-03-23T01:52:17;84225.40;;;-2.58;48.66
36514;BME280;74739;46.796;9.824;2024-03-23T01:54:46;84221.72;;;-0.75;44.01
36514;BME280;74739;46.796;9.824;2024-03-23T01:57:14;84224.02;;;-3.23;48.51
36514;BME280;74739;46.796;9.824;2024-03-23T01:59:43;84223.90;;;-3.66;50.52
36514;BME280;74739;46.796;9.824;2024-03-23T02:02:16;84218.17;;;-2.87;48.96
36514;BME280;74739;46.796;9.824;2024-03-23T02:04:44;84206.54;;;-1.10;45.15
36514;BME280;74739;46.796;9.824;2024-03-23T02:07:12;84211.00;;;-2.52;47.73
36514;BME280;74739;46.796;9.824;2024-03-23T02:09:41;84208.22;;;-3.28;49.86
36514;BME280;74739;46.796;9.824;2024-03-23T02:12:09;84201.15;;;-2.04;47.10
36514;BME280;74739;46.796;9.824;2024-03-23T02:14:43;84203.20;;;-2.51;48.53
36514;BME280;74739;46.796;9.824;2024-03-23T02:17:11;84201.67;;;-4.29;52.68
36514;BME280;74739;46.796;9.824;2024-03-23T02:19:43;84195.57;;;-2.95;50.76
36514;BME280;74739;46.796;9.824;2024-03-23T02:22:11;84186.97;;;-1.51;45.87
36514;BME280;74739;46.796;9.824;2024-03-23T02:24:39;84184.38;;;-1.33;45.47
36514;BME280;74739;46.796;9.824;2024-03-23T02:27:08;84189.01;;;-2.80;47.29
36514;BME280;74739;46.796;9.824;2024-03-23T02:29:35;84192.06;;;-4.25;51.72
36514;BME280;74739;46.796;9.824;2024-03-23T02:32:04;84181.13;;;-2.07;47.76
36514;BME280;74739;46.796;9.824;2024-03-23T02:34:32;84177.52;;;-2.98;48.77
36514;BME280;74739;46.796;9.824;2024-03-23T02:36:59;84166.59;;;-0.63;43.87
36514;BME280;74739;46.796;9.824;2024-03-23T02:39:27;84160.41;;;-0.15;42.58
36514;BME280;74739;46.796;9.824;2024-03-23T02:41:55;84161.30;;;0.63;40.72
36514;BME280;74739;46.796;9.824;2024-03-23T02:44:23;84154.20;;;0.64;40.68
36514;BME280;74739;46.796;9.824;2024-03-23T02:46:52;84165.82;;;-4.60;51.23
36514;BME280;74739;46.796;9.824;2024-03-23T02:49:20;84169.83;;;-5.29;55.28
36514;BME280;74739;46.796;9.824;2024-03-23T02:51:48;84158.01;;;-1.99;47.69
36514;BME280;74739;46.796;9.824;2024-03-23T02:54:15;84156.60;;;-2.13;46.82
36514;BME280;74739;46.796;9.824;2024-03-23T02:56:43;84154.41;;;-2.13;46.24
36514;BME280;74739;46.796;9.824;2024-03-23T02:59:11;84159.77;;;-4.92;52.69
36514;BME280;74739;46.796;9.824;2024-03-23T03:01:40;84160.29;;;-3.97;52.39
36514;BME280;74739;46.796;9.824;2024-03-23T03:04:07;84161.93;;;-3.10;49.29
36514;BME280;74739;46.796;9.824;2024-03-23T03:06:35;84153.81;;;-1.66;45.10
36514;BME280;74739;46.796;9.824;2024-03-23T03:09:03;84162.21;;;-4.14;49.86
36514;BME280;74739;46.796;9.824;2024-03-23T03:11:31;84159.09;;;-5.24;54.15
36514;BME280;74739;46.796;9.824;2024-03-23T03:13:58;84157.91;;;-4.62;53.80
36514;BME280;74739;46.796;9.824;2024-03-23T03:16:26;84156.82;;;-4.54;50.82
36514;BME280;74739;46.796;9.824;2024-03-23T03:18:59;84157.82;;;-4.72;52.28
36514;BME280;74739;46.796;9.824;2024-03-23T03:21:27;84157.36;;;-3.64;49.47
36514;BME280;74739;46.796;9.824;2024-03-23T03:23:55;84154.60;;;-4.65;50.39
36514;BME280;74739;46.796;9.824;2024-03-23T03:26:23;84150.43;;;-3.35;48.83
36514;BME280;74739;46.796;9.824;2024-03-23T03:28:51;84142.60;;;-1.90;45.53
36514;BME280;74739;46.796;9.824;2024-03-23T03:31:19;84148.58;;;-4.01;49.55
36514;BME280;74739;46.796;9.824;2024-03-23T03:33:49;84148.98;;;-5.01;53.54
36514;BME280;74739;46.796;9.824;2024-03-23T03:36:18;84145.43;;;-4.47;53.29
36514;BME280;74739;46.796;9.824;2024-03-23T03:38:46;84141.03;;;-3.71;49.10
36514;BME280;74739;46.796;9.824;2024-03-23T03:41:15;84139.45;;;-5.30;53.81
36514;BME280;74739;46.796;9.824;2024-03-23T03:43:42;84145.97;;;-5.82;55.20
36514;BME280;74739;46.796;9.824;2024-03-23T03:46:10;84141.87;;;-2.61;48.63
36514;BME280;74739;46.796;9.824;2024-03-23T03:48:43;84139.20;;;-3.47;49.23
36514;BME280;74739;46.796;9.824;2024-03-23T03:51:10;84133.74;;;-2.17;47.57
36514;BME280;74739;46.796;9.824;2024-03-23T03:53:43;84141.34;;;-5.31;54.40
36514;BME280;74739;46.796;9.824;2024-03-23T03:56:10;84136.52;;;-5.67;55.83
36514;BME280;74739;46.796;9.824;2024-03-23T03:58:43;84131.37;;;-3.19;49.98
36514;BME280;74739;46.796;9.824;2024-03-23T04:01:11;84128.65;;;-3.69;50.31
36514;BME280;74739;46.796;9.824;2024-03-23T04:03:39;84121.23;;;-2.12;47.28
36514;BME280;74739;46.796;9.824;2024-03-23T04:06:07;84119.15;;;-2.62;47.75
36514;BME280;74739;46.796;9.824;2024-03-23T04:08:34;84116.08;;;-1.69;45.46
36514;BME280;74739;46.796;9.824;2024-03-23T04:11:02;84113.86;;;-1.17;45.17
36514;BME280;74739;46.796;9.824;2024-03-23T04:13:30;84110.01;;;-1.60;44.95
36514;BME280;74739;46.796;9.824;2024-03-23T04:15:58;84103.72;;;-0.84;43.48
36514;BME280;74739;46.796;9.824;2024-03-23T04:18:26;84111.14;;;-4.57;51.05
36514;BME280;74739;46.796;9.824;2024-03-23T04:20:53;84102.75;;;-4.40;50.47
36514;BME280;74739;46.796;9.824;2024-03-23T04:23:20;84094.17;;;-1.72;45.40
36514;BME280;74739;46.796;9.824;2024-03-23T04:25:47;84085.90;;;-1.57;44.85
36514;BME280;74739;46.796;9.824;2024-03-23T04:28:14;84085.46;;;-3.52;48.34
36514;BME280;74739;46.796;9.824;2024-03-23T04:30:43;84084.51;;;-5.08;52.52
36514;BME280;74739;46.796;9.824;2024-03-23T04:33:16;84066.62;;;-2.69;47.70
36514;BME280;74739;46.796;9.824;2024-03-23T04:35:43;84064.34;;;-2.49;46.20
36514;BME280;74739;46.796;9.824;2024-03-23T04:38:10;84058.08;;;-1.03;43.57
36514;BME280;74739;46.796;9.824;2024-03-23T04:40:42;84057.00;;;-3.42;48.15
36514;BME280;74739;46.796;9.824;2024-03-23T04:43:09;84053.37;;;-1.38;45.04
36514;BME280;74739;46.796;9.824;2024-03-23T04:45:37;84047.72;;;-0.69;43.57
36514;BME280;74739;46.796;9.824;2024-03-23T04:48:05;84052.03;;;-4.60;50.54
36514;BME280;74739;46.796;9.824;2024-03-23T04:50:32;84054.12;;;-6.06;56.24
36514;BME280;74739;46.796;9.824;2024-03-23T04:52:59;84048.31;;;-3.98;52.95
36514;BME280;74739;46.796;9.824;2024-03-23T04:55:26;84036.64;;;-2.68;47.91
36514;BME280;74739;46.796;9.824;2024-03-23T04:57:53;84033.73;;;-1.63;45.39
36514;BME280;74739;46.796;9.824;2024-03-23T05:00:20;84028.70;;;-1.05;43.92
36514;BME280;74739;46.796;9.824;2024-03-23T05:02:47;84032.60;;;-1.13;43.36
36514;BME280;74739;46.796;9.824;2024-03-23T05:05:14;84024.96;;;-1.17;43.46
36514;BME280;74739;46.796;9.824;2024-03-23T05:07:41;84026.74;;;-2.83;46.35
36514;BME280;74739;46.796;9.824;2024-03-23T05:10:12;84023.64;;;-1.29;43.43
36514;BME280;74739;46.796;9.824;2024-03-23T05:12:40;84022.34;;;-2.23;44.33
36514;BME280;74739;46.796;9.824;2024-03-23T05:15:07;84023.07;;;-2.38;46.19
36514;BME280;74739;46.796;9.824;2024-03-23T05:17:34;84018.27;;;-3.20;47.98
36514;BME280;74739;46.796;9.824;2024-03-23T05:20:01;84015.44;;;-1.99;44.83
36514;BME280;74739;46.796;9.824;2024-03-23T05:22:28;84012.77;;;-2.33;45.91
36514;BME280;74739;46.796;9.824;2024-03-23T05:24:55;84013.22;;;-4.18;50.07
36514;BME280;74739;46.796;9.824;2024-03-23T05:27:22;84005.27;;;-3.04;48.66
36514;BME280;74739;46.796;9.824;2024-03-23T05:29:49;83997.88;;;-2.16;45.94
36514;BME280;74739;46.796;9.824;2024-03-23T05:32:16;83994.18;;;-1.67;45.45
36514;BME280;74739;46.796;9.824;2024-03-23T05:34:45;83992.18;;;-1.43;43.98
36514;BME280;74739;46.796;9.824;2024-03-23T05:37:12;83995.56;;;-2.64;47.21
36514;BME280;74739;46.796;9.824;2024-03-23T05:39:39;84003.05;;;-4.90;52.46
36514;BME280;74739;46.796;9.824;2024-03-23T05:42:06;84000.30;;;-5.68;54.90
36514;BME280;74739;46.796;9.824;2024-03-23T05:44:33;83997.37;;;-4.29;51.13
36514;BME280;74739;46.796;9.824;2024-03-23T05:47:00;83992.69;;;-3.24;49.30
36514;BME280;74739;46.796;9.824;2024-03-23T05:49:28;83997.20;;;-4.13;50.78
36514;BME280;74739;46.796;9.824;2024-03-23T05:51:55;83995.45;;;-4.48;50.47
36514;BME280;74739;46.796;9.824;2024-03-23T05:54:23;83989.10;;;-2.56;46.70
36514;BME280;74739;46.796;9.824;2024-03-23T05:56:50;83991.85;;;-1.82;44.49
36514;BME280;74739;46.796;9.824;2024-03-23T05:59:21;83992.57;;;-4.68;50.61
36514;BME280;74739;46.796;9.824;2024-03-23T06:01:49;83987.10;;;-4.24;50.66
36514;BME280;74739;46.796;9.824;2024-03-23T06:04:16;83981.63;;;-5.01;52.93
36514;BME280;74739;46.796;9.824;2024-03-23T06:06:49;83970.67;;;-3.26;48.70
36514;BME280;74739;46.796;9.824;2024-03-23T06:09:16;83968.97;;;-3.39;48.62
36514;BME280;74739;46.796;9.824;2024-03-23T06:11:43;83966.13;;;-3.64;49.78
36514;BME280;74739;46.796;9.824;2024-03-23T06:14:11;83964.10;;;-3.86;49.06
36514;BME280;74739;46.796;9.824;2024-03-23T06:16:43;83964.06;;;-4.78;52.07
36514;BME280;74739;46.796;9.824;2024-03-23T06:19:10;83953.57;;;-2.67;49.29
36514;BME280;74739;46.796;9.824;2024-03-23T06:21:43;83947.69;;;-3.11;48.15
36514;BME280;74739;46.796;9.824;2024-03-23T06:24:11;83952.28;;;-1.81;44.85
36514;BME280;74739;46.796;9.824;2024-03-23T06:26:43;83945.44;;;-0.49;42.37
36514;BME280;74739;46.796;9.824;2024-03-23T06:29:11;83953.35;;;-4.64;50.54
36514;BME280;74739;46.796;9.824;2024-03-23T06:31:44;83961.18;;;-5.50;55.17
36514;BME280;74739;46.796;9.824;2024-03-23T06:34:19;83952.86;;;-3.02;49.42
36514;BME280;74739;46.796;9.824;2024-03-23T06:36:47;83954.24;;;-2.90;49.00
36514;BME280;74739;46.796;9.824;2024-03-23T06:39:15;83954.56;;;-4.06;51.46
36514;BME280;74739;46.796;9.824;2024-03-23T06:41:42;83943.17;;;-5.42;54.88
36514;BME280;74739;46.796;9.824;2024-03-23T06:44:09;83937.91;;;-5.26;56.02
36514;BME280;74739;46.796;9.824;2024-03-23T06:46:42;83916.28;;;-3.49;52.11
36514;BME280;74739;46.796;9.824;2024-03-23T06:49:10;83904.23;;;-2.33;47.41
36514;BME280;74739;46.796;9.824;2024-03-23T06:51:39;83897.28;;;-0.71;43.87
36514;BME280;74739;46.796;9.824;2024-03-23T06:54:06;83891.32;;;-2.14;45.01
36514;BME280;74739;46.796;9.824;2024-03-23T06:56:34;83881.95;;;-0.35;43.15
36514;BME280;74739;46.796;9.824;2024-03-23T06:59:01;83866.15;;;1.44;36.92
36514;BME280;74739;46.796;9.824;2024-03-23T07:01:29;83859.55;;;1.86;36.92
36514;BME280;74739;46.796;9.824;2024-03-23T07:03:57;83855.73;;;1.78;37.87
36514;BME280;74739;46.796;9.824;2024-03-23T07:06:24;83861.10;;;-2.74;47.20
36514;BME280;74739;46.796;9.824;2024-03-23T07:08:52;83854.85;;;-1.66;45.77
36514;BME280;74739;46.796;9.824;2024-03-23T07:11:20;83845.20;;;-1.78;44.96
36514;BME280;74739;46.796;9.824;2024-03-23T07:13:50;83837.93;;;-1.02;43.70
36514;BME280;74739;46.796;9.824;2024-03-23T07:16:17;83826.38;;;1.39;39.76
36514;BME280;74739;46.796;9.824;2024-03-23T07:18:44;83832.42;;;-0.21;42.04
36514;BME280;74739;46.796;9.824;2024-03-23T07:21:11;83830.63;;;-1.80;44.96
36514;BME280;74739;46.796;9.824;2024-03-23T07:23:42;83818.78;;;0.56;39.21
36514;BME280;74739;46.796;9.824;2024-03-23T07:26:09;83808.47;;;2.59;35.28
36514;BME280;74739;46.796;9.824;2024-03-23T07:28:39;83805.73;;;2.24;33.78
36514;BME280;74739;46.796;9.824;2024-03-23T07:31:08;83797.82;;;4.41;29.71
36514;BME280;74739;46.796;9.824;2024-03-23T07:33:43;83792.39;;;5.29;27.83
36514;BME280;74739;46.796;9.824;2024-03-23T07:36:10;83790.91;;;0.59;38.14
36514;BME280;74739;46.796;9.824;2024-03-23T07:38:40;83782.54;;;0.41;38.92
36514;BME280;74739;46.796;9.824;2024-03-23T07:41:08;83772.78;;;1.33;37.37
36514;BME280;74739;46.796;9.824;2024-03-23T07:43:36;83766.14;;;0.86;37.73
36514;BME280;74739;46.796;9.824;2024-03-23T07:46:04;83765.72;;;0.59;40.09
36514;BME280;74739;46.796;9.824;2024-03-23T07:48:32;83764.89;;;-0.01;41.31
36514;BME280;74739;46.796;9.824;2024-03-23T07:51:00;83773.53;;;-1.45;42.40
36514;BME280;74739;46.796;9.824;2024-03-23T07:53:27;83768.11;;;1.13;36.85
36514;BME280;74739;46.796;9.824;2024-03-23T07:55:56;83757.81;;;3.10;31.57
36514;BME280;74739;46.796;9.824;2024-03-23T07:58:23;83755.75;;;4.43;28.94
36514;BME280;74739;46.796;9.824;2024-03-23T08:00:51;83760.65;;;1.51;32.76
36514;BME280;74739;46.796;9.824;2024-03-23T08:03:19;83765.10;;;0.76;34.56
36514;BME280;74739;46.796;9.824;2024-03-23T08:05:47;83762.41;;;3.60;33.35
36514;BME280;74739;46.796;9.824;2024-03-23T08:08:14;83761.28;;;3.79;34.78
36514;BME280;74739;46.796;9.824;2024-03-23T08:10:49;83765.22;;;3.71;34.93
36514;BME280;74739;46.796;9.824;2024-03-23T08:13:17;83764.52;;;4.03;33.00
36514;BME280;74739;46.796;9.824;2024-03-23T08:15:45;83769.12;;;3.45;33.85
36514;BME280;74739;46.796;9.824;2024-03-23T08:18:12;83772.87;;;2.14;34.21
36514;BME280;74739;46.796;9.824;2024-03-23T08:20:40;83774.24;;;3.07;32.12
36514;BME280;74739;46.796;9.824;2024-03-23T08:23:08;83777.06;;;3.97;32.31
36514;BME280;74739;46.796;9.824;2024-03-23T08:25:36;83785.83;;;3.95;32.27
36514;BME280;74739;46.796;9.824;2024-03-23T08:28:04;83794.13;;;1.86;34.63
36514;BME280;74739;46.796;9.824;2024-03-23T08:30:31;83803.19;;;3.18;34.28
36514;BME280;74739;46.796;9.824;2024-03-23T08:32:58;83810.49;;;2.96;34.49
36514;BME280;74739;46.796;9.824;2024-03-23T08:35:26;83819.94;;;2.80;34.38
36514;BME280;74739;46.796;9.824;2024-03-23T08:37:53;83822.94;;;1.94;36.66
36514;BME280;74739;46.796;9.824;2024-03-23T08:40:21;83813.27;;;1.92;37.20
36514;BME280;74739;46.796;9.824;2024-03-23T08:42:48;83819.02;;;3.36;35.57
36514;BME280;74739;46.796;9.824;2024-03-23T08:45:16;83856.04;;;3.79;35.03
36514;BME280;74739;46.796;9.824;2024-03-23T08:47:43;83857.44;;;2.71;37.19
36514;BME280;74739;46.796;9.824;2024-03-23T08:50:10;83859.13;;;2.42;39.97
36514;BME280;74739;46.796;9.824;2024-03-23T08:52:37;83867.47;;;2.26;42.15
36514;BME280;74739;46.796;9.824;2024-03-23T08:55:05;83881.36;;;1.54;45.09
36514;BME280;74739;46.796;9.824;2024-03-23T08:57:32;83875.11;;;1.93;46.30
36514;BME280;74739;46.796;9.824;2024-03-23T08:59:59;83875.34;;;1.40;48.12
36514;BME280;74739;46.796;9.824;2024-03-23T09:02:26;83883.88;;;0.96;49.92
36514;BME280;74739;46.796;9.824;2024-03-23T09:04:52;83886.10;;;1.14;52.04
36514;BME280;74739;46.796;9.824;2024-03-23T09:07:19;83887.18;;;1.04;52.76
36514;BME280;74739;46.796;9.824;2024-03-23T09:09:46;83900.33;;;0.63;54.42
36514;BME280;74739;46.796;9.824;2024-03-23T09:12:13;83907.84;;;1.46;51.96
36514;BME280;74739;46.796;9.824;2024-03-23T09:14:40;83919.32;;;0.58;57.69
36514;BME280;74739;46.796;9.824;2024-03-23T09:17:07;83907.60;;;0.52;58.03
36514;BME280;74739;46.796;9.824;2024-03-23T09:19:34;83910.05;;;0.95;57.69
36514;BME280;74739;46.796;9.824;2024-03-23T09:22:00;83911.21;;;0.66;57.04
36514;BME280;74739;46.796;9.824;2024-03-23T09:24:27;83906.59;;;0.83;55.54
36514;BME280;74739;46.796;9.824;2024-03-23T09:26:54;83901.45;;;0.67;57.98
36514;BME280;74739;46.796;9.824;2024-03-23T09:29:20;83904.83;;;1.11;57.41
36514;BME280;74739;46.796;9.824;2024-03-23T09:31:47;83898.49;;;1.38;56.23
36514;BME280;74739;46.796;9.824;2024-03-23T09:34:14;83897.39;;;0.76;57.60
36514;BME280;74739;46.796;9.824;2024-03-23T09:36:41;83902.52;;;0.13;59.87
36514;BME280;74739;46.796;9.824;2024-03-23T09:39:07;83901.65;;;0.02;62.02
36514;BME280;74739;46.796;9.824;2024-03-23T09:41:34;83897.53;;;0.29;60.67
36514;BME280;74739;46.796;9.824;2024-03-23T09:44:01;83894.84;;;0.18;62.33
36514;BME280;74739;46.796;9.824;2024-03-23T09:46:29;83894.02;;;-0.39;65.82
36514;BME280;74739;46.796;9.824;2024-03-23T09:48:56;83885.89;;;0.05;64.09
36514;BME280;74739;46.796;9.824;2024-03-23T09:51:24;83891.25;;;-0.28;65.45
36514;BME280;74739;46.796;9.824;2024-03-23T09:53:50;83882.20;;;-0.63;66.71
36514;BME280;74739;46.796;9.824;2024-03-23T09:56:18;83880.13;;;-0.89;68.76
36514;BME280;74739;46.796;9.824;2024-03-23T09:58:46;83872.15;;;-0.33;69.18
36514;BME280;74739;46.796;9.824;2024-03-23T10:01:12;83871.00;;;0.03;68.11
36514;BME280;74739;46.796;9.824;2024-03-23T10:03:43;83868.51;;;-0.70;69.49
36514;BME280;74739;46.796;9.824;2024-03-23T10:06:10;83863.86;;;-0.58;70.24
36514;BME280;74739;46.796;9.824;2024-03-23T10:08:38;83864.66;;;-0.17;68.89
36514;BME280;74739;46.796;9.824;2024-03-23T10:11:14;83862.64;;;-1.21;75.19
36514;BME280;74739;46.796;9.824;2024-03-23T10:13:42;83859.64;;;-0.32;68.55
36514;BME280;74739;46.796;9.824;2024-03-23T10:16:10;83854.39;;;-1.09;72.83
36514;BME280;74739;46.796;9.824;2024-03-23T10:18:39;83849.47;;;-0.97;70.77
36514;BME280;74739;46.796;9.824;2024-03-23T10:21:08;83855.31;;;-0.66;70.58
36514;BME280;74739;46.796;9.824;2024-03-23T10:23:36;83855.15;;;-0.74;68.36
36514;BME280;74739;46.796;9.824;2024-03-23T10:26:17;83850.52;;;-1.11;71.56
36514;BME280;74739;46.796;9.824;2024-03-23T10:28:54;83845.04;;;-1.17;70.67
36514;BME280;74739;46.796;9.824;2024-03-23T10:31:21;83839.43;;;-1.18;74.66
36514;BME280;74739;46.796;9.824;2024-03-23T10:33:49;83832.58;;;-1.32;77.75
36514;BME280;74739;46.796;9.824;2024-03-23T10:36:17;83829.85;;;-1.55;77.70
36514;BME280;74739;46.796;9.824;2024-03-23T10:38:46;83830.13;;;-0.93;73.64
36514;BME280;74739;46.796;9.824;2024-03-23T10:41:14;83828.25;;;0.29;68.83
36514;BME280;74739;46.796;9.824;2024-03-23T10:43:43;83829.25;;;-0.74;70.04
36514;BME280;74739;46.796;9.824;2024-03-23T10:46:11;83833.65;;;-1.45;73.97
36514;BME280;74739;46.796;9.824;2024-03-23T10:48:39;83828.65;;;-2.64;80.78
36514;BME280;74739;46.796;9.824;2024-03-23T10:51:08;83825.21;;;-1.83;77.12
36514;BME280;74739;46.796;9.824;2024-03-23T10:53:35;83824.16;;;-2.30;77.21
36514;BME280;74739;46.796;9.824;2024-03-23T10:56:03;83817.83;;;-1.57;76.44
36514;BME280;74739;46.796;9.824;2024-03-23T10:58:34;83821.41;;;-0.82;73.62
36514;BME280;74739;46.796;9.824;2024-03-23T11:01:20;83822.39;;;-2.40;77.68
36514;BME280;74739;46.796;9.824;2024-03-23T11:03:47;83817.61;;;-1.98;78.01
36514;BME280;74739;46.796;9.824;2024-03-23T11:06:34;83824.75;;;-3.06;78.99
36514;BME280;74739;46.796;9.824;2024-03-23T11:09:01;83837.29;;;-2.02;77.00
36514;BME280;74739;46.796;9.824;2024-03-23T11:11:28;83840.93;;;-1.80;72.30
36514;BME280;74739;46.796;9.824;2024-03-23T11:13:55;83831.46;;;-0.71;70.29
36514;BME280;74739;46.796;9.824;2024-03-23T11:16:23;83819.80;;;-2.20;76.17
36514;BME280;74739;46.796;9.824;2024-03-23T11:18:51;83813.06;;;-2.70;76.18
36514;BME280;74739;46.796;9.824;2024-03-23T11:23:31;83820.76;;;-3.24;79.18
36514;BME280;74739;46.796;9.824;2024-03-23T11:25:58;83831.39;;;-3.25;78.85
36514;BME280;74739;46.796;9.824;2024-03-23T11:28:25;83808.54;;;-3.87;82.32
36514;BME280;74739;46.796;9.824;2024-03-23T11:30:52;83795.45;;;-4.62;90.99
36514;BME280;74739;46.796;9.824;2024-03-23T11:33:19;83800.51;;;-3.79;88.60
36514;BME280;74739;46.796;9.824;2024-03-23T11:35:46;83828.28;;;-4.11;86.04
36514;BME280;74739;46.796;9.824;2024-03-23T11:38:14;83813.28;;;-2.64;80.97
36514;BME280;74739;46.796;9.824;2024-03-23T11:40:43;83821.33;;;-2.55;76.37
36514;BME280;74739;46.796;9.824;2024-03-23T11:43:13;83846.25;;;-2.84;75.93
36514;BME280;74739;46.796;9.824;2024-03-23T11:45:43;83849.98;;;-2.96;75.64
36514;BME280;74739;46.796;9.824;2024-03-23T11:48:11;83855.80;;;-2.74;78.63
36514;BME280;74739;46.796;9.824;2024-03-23T11:50:40;83852.52;;;-2.58;75.60
36514;BME280;74739;46.796;9.824;2024-03-23T11:53:11;83862.87;;;-3.75;77.45
36514;BME280;74739;46.796;9.824;2024-03-23T11:55:41;83865.91;;;-3.69;80.58
36514;BME280;74739;46.796;9.824;2024-03-23T11:58:08;83877.88;;;-3.63;80.94
36514;BME280;74739;46.796;9.824;2024-03-23T12:00:35;83887.29;;;-4.12;84.89
36514;BME280;74739;46.796;9.824;2024-03-23T12:03:03;83893.55;;;-4.79;85.67
36514;BME280;74739;46.796;9.824;2024-03-23T12:05:31;83897.97;;;-4.58;85.69
36514;BME280;74739;46.796;9.824;2024-03-23T12:08:16;83901.06;;;-3.60;79.41
36514;BME280;74739;46.796;9.824;2024-03-23T12:10:46;83916.49;;;-4.54;80.41
36514;BME280;74739;46.796;9.824;2024-03-23T12:13:15;83920.83;;;-4.25;81.60
36514;BME280;74739;46.796;9.824;2024-03-23T12:15:43;83928.32;;;-4.35;82.20
36514;BME280;74739;46.796;9.824;2024-03-23T12:18:11;83940.26;;;-4.70;86.32
36514;BME280;74739;46.796;9.824;2024-03-23T12:20:40;83940.44;;;-4.13;84.59
36514;BME280;74739;46.796;9.824;2024-03-23T12:23:09;83947.82;;;-5.24;83.00
36514;BME280;74739;46.796;9.824;2024-03-23T12:25:39;83944.16;;;-5.16;85.40
36514;BME280;74739;46.796;9.824;2024-03-23T12:28:07;83957.64;;;-5.48;91.55
36514;BME280;74739;46.796;9.824;2024-03-23T12:30:35;83965.56;;;-4.73;86.90
36514;BME280;74739;46.796;9.824;2024-03-23T12:33:03;83957.61;;;-4.44;86.17
36514;BME280;74739;46.796;9.824;2024-03-23T12:35:30;83957.77;;;-5.98;90.72
36514;BME280;74739;46.796;9.824;2024-03-23T12:37:57;83962.87;;;-5.42;92.34
36514;BME280;74739;46.796;9.824;2024-03-23T12:40:24;83963.11;;;-4.58;84.55
36514;BME280;74739;46.796;9.824;2024-03-23T12:42:51;83968.78;;;-5.48;87.27
36514;BME280;74739;46.796;9.824;2024-03-23T12:45:17;83968.65;;;-5.54;85.61
36514;BME280;74739;46.796;9.824;2024-03-23T12:47:44;83969.25;;;-5.03;82.81
36514;BME280;74739;46.796;9.824;2024-03-23T12:50:11;83962.87;;;-3.22;75.50
36514;BME280;74739;46.796;9.824;2024-03-23T12:52:43;83963.20;;;-2.38;73.64
36514;BME280;74739;46.796;9.824;2024-03-23T12:55:10;83960.32;;;-2.60;74.54
36514;BME280;74739;46.796;9.824;2024-03-23T12:57:39;83960.22;;;-2.94;73.95
36514;BME280;74739;46.796;9.824;2024-03-23T13:00:07;83961.71;;;-3.33;76.92
36514;BME280;74739;46.796;9.824;2024-03-23T13:02:35;83966.15;;;-4.29;75.08
36514;BME280;74739;46.796;9.824;2024-03-23T13:05:02;83977.09;;;-4.55;75.44
36514;BME280;74739;46.796;9.824;2024-03-23T13:07:29;83973.64;;;-3.40;75.33
36514;BME280;74739;46.796;9.824;2024-03-23T13:09:55;83978.37;;;-3.40;72.56
36514;BME280;74739;46.796;9.824;2024-03-23T13:12:23;83986.71;;;-4.74;76.02
36514;BME280;74739;46.796;9.824;2024-03-23T13:14:50;83983.92;;;-3.44;75.23
36514;BME280;74739;46.796;9.824;2024-03-23T13:17:17;83984.64;;;-2.92;70.61
36514;BME280;74739;46.796;9.824;2024-03-23T13:19:44;83989.79;;;-4.84;78.46
36514;BME280;74739;46.796;9.824;2024-03-23T13:22:11;83999.22;;;-5.02;83.16
36514;BME280;74739;46.796;9.824;2024-03-23T13:24:43;83998.95;;;-4.80;80.90
36514;BME280;74739;46.796;9.824;2024-03-23T13:27:10;83997.72;;;-5.23;82.18
36514;BME280;74739;46.796;9.824;2024-03-23T13:29:37;83989.28;;;-4.41;81.92
36514;BME280;74739;46.796;9.824;2024-03-23T13:32:04;83986.64;;;-2.47;70.12
36514;BME280;74739;46.796;9.824;2024-03-23T13:34:32;83990.40;;;-3.99;71.90
36514;BME280;74739;46.796;9.824;2024-03-23T13:36:59;83984.72;;;-3.03;76.71
36514;BME280;74739;46.796;9.824;2024-03-23T13:39:26;83983.81;;;-2.83;69.88
36514;BME280;74739;46.796;9.824;2024-03-23T13:41:52;83984.75;;;-3.12;72.04
36514;BME280;74739;46.796;9.824;2024-03-23T13:44:19;83985.69;;;-2.20;68.03
36514;BME280;74739;46.796;9.824;2024-03-23T13:46:46;83974.59;;;-0.57;64.95
36514;BME280;74739;46.796;9.824;2024-03-23T13:49:24;83971.93;;;0.14;61.83
36514;BME280;74739;46.796;9.824;2024-03-23T13:51:52;83975.19;;;-3.65;71.38
36514;BME280;74739;46.796;9.824;2024-03-23T13:54:20;83979.87;;;-4.30;79.87
36514;BME280;74739;46.796;9.824;2024-03-23T13:56:48;83975.79;;;-4.96;80.78
36514;BME280;74739;46.796;9.824;2024-03-23T13:59:15;83970.48;;;-5.11;84.87
36514;BME280;74739;46.796;9.824;2024-03-23T14:01:42;83967.78;;;-5.38;85.90
36514;BME280;74739;46.796;9.824;2024-03-23T14:04:09;83966.79;;;-5.18;84.56